Time;durP1;ratioP1;P1;durP2;ratioP2;P2;SDS_P1;SDS_P2;PMS_P1;PMS_P2;Temp;Humidity;BMP_temperature;BMP_pressure;BME280_temperature;BME280_humidity;BME280_pressure;Samples;Min_cycle;Max_cycle;Signal;HPM_P1;HPM_P2
2023/11/27 00:01:08;;;;;;;2.17;0.77;;;3.00;79.60;;;;;;4993831;28;20045;-73
2023/11/27 00:03:34;;;;;;;2.00;0.80;;;3.10;79.50;;;;;;4992775;28;20058;-73
2023/11/27 00:06:00;;;;;;;2.20;0.77;;;3.10;79.80;;;;;;4991377;28;20038;-73
2023/11/27 00:08:25;;;;;;;2.05;0.88;;;3.10;79.50;;;;;;4993122;28;21390;-73
2023/11/27 00:10:51;;;;;;;1.50;0.93;;;3.10;79.20;;;;;;4993897;28;20091;-73
2023/11/27 00:13:17;;;;;;;2.67;1.00;;;3.20;79.00;;;;;;4992158;28;20160;-73
2023/11/27 00:15:43;;;;;;;3.45;1.05;;;3.20;79.70;;;;;;4992704;28;20589;-73
2023/11/27 00:18:08;;;;;;;2.78;1.10;;;3.60;78.20;;;;;;4994665;28;20092;-73
2023/11/27 00:20:34;;;;;;;3.13;0.98;;;3.60;78.00;;;;;;4996524;28;20100;-73
2023/11/27 00:23:00;;;;;;;2.50;1.25;;;3.50;78.30;;;;;;4998119;28;20144;-73
2023/11/27 00:25:25;;;;;;;1.45;0.88;;;3.50;78.40;;;;;;4996051;28;20069;-73
2023/11/27 00:27:51;;;;;;;2.45;1.08;;;3.40;78.50;;;;;;4995963;28;20087;-73
2023/11/27 00:30:17;;;;;;;2.40;0.70;;;3.40;78.80;;;;;;4997681;28;20038;-72
2023/11/27 00:32:43;;;;;;;1.55;0.70;;;3.50;78.40;;;;;;4997385;28;21295;-73
2023/11/27 00:35:08;;;;;;;2.42;0.80;;;3.40;79.00;;;;;;4997091;28;20038;-73
2023/11/27 00:37:34;;;;;;;1.90;0.98;;;3.20;78.70;;;;;;4998546;28;20029;-73
2023/11/27 00:40:00;;;;;;;2.33;0.80;;;3.10;79.10;;;;;;4996384;28;20034;-73
2023/11/27 00:42:25;;;;;;;1.25;0.60;;;2.90;79.60;;;;;;4998062;28;20180;-73
2023/11/27 00:44:51;;;;;;;2.60;0.77;;;2.90;79.90;;;;;;4995893;28;20050;-73
2023/11/27 00:47:17;;;;;;;1.48;0.45;;;3.00;79.10;;;;;;4996343;28;20056;-73
2023/11/27 00:49:43;;;;;;;2.33;1.10;;;2.90;79.70;;;;;;4997283;28;20030;-73
2023/11/27 00:52:09;;;;;;;3.05;0.95;;;2.90;79.70;;;;;;4997460;28;20060;-73
2023/11/27 00:54:34;;;;;;;1.75;0.70;;;2.80;79.60;;;;;;4995694;28;20034;-73
2023/11/27 00:57:00;;;;;;;2.45;0.98;;;2.60;80.20;;;;;;4997531;28;20034;-73
2023/11/27 00:59:26;;;;;;;1.58;0.60;;;2.50;80.70;;;;;;4994903;28;20608;-73
2023/11/27 01:01:52;;;;;;;3.05;0.88;;;2.40;81.00;;;;;;4993341;28;20030;-73
2023/11/27 01:04:17;;;;;;;1.58;0.63;;;2.60;80.20;;;;;;4997199;28;20056;-73
2023/11/27 01:06:43;;;;;;;1.35;0.65;;;2.60;80.30;;;;;;4996523;28;20050;-73
2023/11/27 01:09:09;;;;;;;2.38;1.00;;;2.30;81.50;;;;;;4995245;28;20594;-73
2023/11/27 01:11:34;;;;;;;1.13;0.55;;;2.10;81.80;;;;;;4996890;28;20119;-73
2023/11/27 01:14:00;;;;;;;2.67;1.05;;;2.10;81.60;;;;;;4995630;28;20036;-73
2023/11/27 01:16:26;;;;;;;2.55;0.90;;;2.30;81.70;;;;;;4995761;28;20038;-73
2023/11/27 01:18:52;;;;;;;1.35;0.60;;;2.20;81.30;;;;;;4996075;28;20519;-73
2023/11/27 01:21:18;;;;;;;0.68;0.50;;;1.90;82.40;;;;;;4996335;28;20064;-72
2023/11/27 01:23:44;;;;;;;0.43;0.32;;;2.00;81.40;;;;;;4995736;28;20501;-73
2023/11/27 01:26:09;;;;;;;0.90;0.60;;;1.80;82.10;;;;;;4995616;28;20042;-73
2023/11/27 01:28:36;;;;;;;2.42;0.88;;;1.80;82.50;;;;;;4996427;28;20034;-73
2023/11/27 01:31:03;;;;;;;1.55;0.73;;;1.90;82.20;;;;;;4995827;28;20036;-73
2023/11/27 01:33:29;;;;;;;2.28;0.75;;;1.80;82.60;;;;;;4995370;28;20088;-73
2023/11/27 01:35:55;;;;;;;1.00;0.40;;;1.80;82.70;;;;;;4994710;28;20045;-73
2023/11/27 01:38:20;;;;;;;2.85;1.08;;;1.90;82.20;;;;;;4994179;28;20022;-73
2023/11/27 01:40:46;;;;;;;1.92;0.80;;;1.90;82.10;;;;;;4996425;28;20049;-73
2023/11/27 01:43:16;;;;;;;1.17;0.47;;;1.70;82.50;;;;;;4993942;28;20104;-73
2023/11/27 01:45:42;;;;;;;1.80;0.60;;;1.50;84.30;;;;;;4995002;28;20034;-73
2023/11/27 01:48:08;;;;;;;1.85;0.65;;;1.40;83.70;;;;;;4996640;28;20038;-73
2023/11/27 01:50:35;;;;;;;1.58;0.77;;;1.60;82.30;;;;;;4995947;28;20038;-73
2023/11/27 01:53:01;;;;;;;2.03;0.80;;;1.60;82.30;;;;;;4993544;28;20571;-73
2023/11/27 01:55:29;;;;;;;1.95;0.75;;;1.40;85.00;;;;;;4996826;28;20042;-73
2023/11/27 01:57:56;;;;;;;1.25;0.50;;;1.40;83.50;;;;;;4994425;28;20041;-73
2023/11/27 02:00:23;;;;;;;1.38;0.57;;;1.20;85.70;;;;;;4994755;28;20057;-73
2023/11/27 02:02:49;;;;;;;2.78;1.00;;;1.20;84.70;;;;;;4994440;28;20042;-73
2023/11/27 02:05:16;;;;;;;2.00;0.98;;;1.10;85.90;;;;;;4996001;28;20077;-73
2023/11/27 02:07:43;;;;;;;1.42;0.50;;;1.30;84.10;;;;;;4996013;28;20665;-73
2023/11/27 02:10:10;;;;;;;2.30;0.50;;;1.30;84.30;;;;;;4994455;28;20451;-73
2023/11/27 02:12:35;;;;;;;1.73;0.60;;;1.30;84.00;;;;;;4995134;28;20030;-73
2023/11/27 02:15:01;;;;;;;1.23;0.47;;;1.40;83.80;;;;;;4995286;28;20060;-73
2023/11/27 02:17:27;;;;;;;0.95;0.43;;;1.60;83.20;;;;;;4993465;28;20388;-73
2023/11/27 02:19:53;;;;;;;1.73;0.90;;;1.60;83.40;;;;;;4995666;28;20520;-73
2023/11/27 02:22:22;;;;;;;1.92;0.70;;;1.60;83.40;;;;;;4994599;28;20061;-73
2023/11/27 02:24:47;;;;;;;1.60;0.90;;;1.60;83.30;;;;;;4995087;28;20046;-73
2023/11/27 02:27:13;;;;;;;2.15;0.93;;;1.40;84.20;;;;;;4994357;28;20041;-73
2023/11/27 02:29:39;;;;;;;1.20;0.60;;;1.40;84.40;;;;;;4993452;28;20030;-73
2023/11/27 02:32:06;;;;;;;1.63;0.60;;;1.40;84.00;;;;;;4995689;28;20037;-73
2023/11/27 02:34:31;;;;;;;1.92;0.65;;;1.40;83.70;;;;;;4995527;28;20034;-73
2023/11/27 02:36:57;;;;;;;1.75;0.70;;;1.20;84.70;;;;;;4994992;28;20026;-73
2023/11/27 02:39:23;;;;;;;1.85;0.57;;;1.40;84.20;;;;;;4994794;28;20776;-73
2023/11/27 02:41:49;;;;;;;1.63;0.88;;;1.30;84.00;;;;;;4994911;28;22621;-73
2023/11/27 02:44:14;;;;;;;2.95;0.68;;;1.50;83.60;;;;;;4995540;28;20042;-73
2023/11/27 02:46:43;;;;;;;1.65;0.77;;;1.30;84.10;;;;;;4996363;28;20511;-73
2023/11/27 02:49:09;;;;;;;4.47;0.60;;;1.50;83.50;;;;;;4995973;28;20033;-73
2023/11/27 02:51:41;;;;;;;1.95;0.85;;;1.40;83.60;;;;;;4994967;28;20041;-73
2023/11/27 02:54:07;;;;;;;1.27;0.73;;;1.50;83.60;;;;;;4994048;28;20100;-73
2023/11/27 02:56:32;;;;;;;1.40;0.73;;;1.60;84.10;;;;;;4993990;28;20373;-72
2023/11/27 02:58:58;;;;;;;2.67;1.05;;;1.60;83.70;;;;;;4994023;28;20040;-73
2023/11/27 03:01:26;;;;;;;1.90;0.80;;;1.60;83.40;;;;;;4991855;28;20053;-73
2023/11/27 03:03:52;;;;;;;1.45;0.60;;;1.60;83.70;;;;;;4994578;28;20113;-72
2023/11/27 03:06:18;;;;;;;1.73;0.70;;;1.60;83.20;;;;;;4994475;28;20065;-73
2023/11/27 03:08:44;;;;;;;1.48;0.20;;;1.30;84.90;;;;;;4993016;28;20109;-73
2023/11/27 03:11:12;;;;;;;3.45;0.77;;;1.10;85.50;;;;;;4994042;28;20033;-73
2023/11/27 03:13:40;;;;;;;2.03;0.70;;;1.50;83.80;;;;;;4992941;28;20038;-73
2023/11/27 03:16:06;;;;;;;1.42;0.80;;;1.50;83.70;;;;;;4994839;28;20088;-73
2023/11/27 03:18:31;;;;;;;1.38;0.70;;;1.30;85.00;;;;;;4995306;28;20034;-73
2023/11/27 03:20:57;;;;;;;1.50;0.65;;;1.30;84.90;;;;;;4994027;28;20467;-73
2023/11/27 03:23:24;;;;;;;2.08;0.93;;;1.40;84.50;;;;;;4995055;28;20038;-73
2023/11/27 03:25:50;;;;;;;1.92;0.77;;;1.40;84.40;;;;;;4995452;28;20030;-73
2023/11/27 03:28:16;;;;;;;1.83;0.82;;;1.60;83.80;;;;;;4993388;28;20041;-73
2023/11/27 03:30:42;;;;;;;1.88;0.55;;;1.50;83.90;;;;;;4992416;28;20046;-73
2023/11/27 03:33:08;;;;;;;1.45;0.70;;;1.20;84.50;;;;;;4993323;28;20042;-73
2023/11/27 03:35:33;;;;;;;0.93;0.52;;;1.20;84.70;;;;;;4995064;28;20672;-73
2023/11/27 03:37:59;;;;;;;1.77;0.75;;;1.20;84.90;;;;;;4993815;28;20034;-73
2023/11/27 03:40:25;;;;;;;2.40;0.65;;;1.30;84.90;;;;;;4994038;28;20038;-74
2023/11/27 03:42:51;;;;;;;2.35;0.77;;;1.40;84.50;;;;;;4994301;28;20041;-73
2023/11/27 03:45:16;;;;;;;0.73;0.38;;;1.50;84.20;;;;;;4993250;28;20049;-73
2023/11/27 03:47:42;;;;;;;2.80;0.82;;;1.40;84.40;;;;;;4994518;28;20046;-73
2023/11/27 03:50:10;;;;;;;1.20;0.60;;;1.50;84.40;;;;;;4993523;28;20515;-73
2023/11/27 03:52:36;;;;;;;1.48;0.70;;;1.30;84.70;;;;;;4991060;28;21291;-73
2023/11/27 03:55:02;;;;;;;2.17;0.60;;;1.20;85.10;;;;;;4994611;28;20048;-73
2023/11/27 03:57:28;;;;;;;1.45;0.60;;;1.20;85.20;;;;;;4994434;28;20030;-74
2023/11/27 03:59:54;;;;;;;3.72;0.85;;;1.30;85.10;;;;;;4992339;28;20108;-73
2023/11/27 04:02:20;;;;;;;1.65;0.60;;;1.50;84.70;;;;;;4994024;28;20061;-73
2023/11/27 04:04:46;;;;;;;1.80;0.65;;;1.40;84.60;;;;;;4988745;28;20042;-74
2023/11/27 04:07:12;;;;;;;1.33;0.50;;;1.30;84.80;;;;;;4988197;28;20111;-75
2023/11/27 04:09:37;;;;;;;1.58;0.70;;;1.20;85.40;;;;;;4988505;28;20030;-74
2023/11/27 04:12:05;;;;;;;1.83;0.55;;;0.90;86.20;;;;;;4987972;28;20036;-74
2023/11/27 04:14:31;;;;;;;1.52;0.60;;;0.80;86.20;;;;;;4987795;28;20073;-74
2023/11/27 04:16:57;;;;;;;2.75;0.75;;;0.80;86.70;;;;;;4985991;28;20041;-74
2023/11/27 04:19:22;;;;;;;1.33;0.70;;;0.70;87.10;;;;;;4988319;28;20038;-74
2023/11/27 04:21:48;;;;;;;0.82;0.38;;;0.90;86.30;;;;;;4990618;28;20733;-76
2023/11/27 04:24:14;;;;;;;1.35;0.57;;;0.70;87.20;;;;;;4994304;28;20091;-75
2023/11/27 04:26:40;;;;;;;1.52;0.75;;;0.70;87.60;;;;;;4994297;28;20042;-75
2023/11/27 04:29:05;;;;;;;1.33;0.50;;;0.80;86.70;;;;;;4993153;28;20055;-74
2023/11/27 04:31:32;;;;;;;1.02;0.60;;;0.70;86.80;;;;;;4993182;28;20054;-75
2023/11/27 04:33:58;;;;;;;1.77;0.80;;;0.90;86.30;;;;;;4993189;28;20053;-74
2023/11/27 04:36:24;;;;;;;2.40;0.80;;;0.90;86.90;;;;;;4993237;28;20026;-75
2023/11/27 04:38:49;;;;;;;1.23;0.68;;;0.90;86.80;;;;;;4992411;28;20088;-75
2023/11/27 04:41:16;;;;;;;2.25;0.77;;;1.20;85.80;;;;;;4993993;28;20096;-74
2023/11/27 04:43:42;;;;;;;1.80;0.60;;;1.20;85.50;;;;;;4992514;28;20252;-74
2023/11/27 04:46:08;;;;;;;2.38;0.70;;;1.20;85.90;;;;;;4991229;28;20433;-74
2023/11/27 04:48:34;;;;;;;2.22;0.77;;;1.00;86.70;;;;;;4988805;28;20030;-74
2023/11/27 04:51:03;;;;;;;6.47;1.67;;;1.00;86.40;;;;;;4989158;28;20117;-74
2023/11/27 04:53:31;;;;;;;4.60;1.10;;;0.90;86.90;;;;;;4985418;28;20037;-75
2023/11/27 04:55:57;;;;;;;2.03;0.93;;;1.00;86.60;;;;;;4990877;28;20065;-74
2023/11/27 04:58:24;;;;;;;1.58;0.43;;;1.30;85.40;;;;;;4990837;28;20124;-74
2023/11/27 05:00:50;;;;;;;1.77;0.60;;;1.20;85.50;;;;;;4985721;28;21088;-74
2023/11/27 05:03:16;;;;;;;2.40;0.80;;;1.20;86.30;;;;;;4992045;28;20061;-74
2023/11/27 05:05:42;;;;;;;2.15;0.77;;;1.40;85.30;;;;;;4989295;28;20038;-75
2023/11/27 05:08:08;;;;;;;2.70;1.00;;;1.40;85.60;;;;;;4989927;28;20664;-74
2023/11/27 05:10:38;;;;;;;2.67;0.80;;;1.20;85.60;;;;;;4990046;28;21363;-75
2023/11/27 05:13:05;;;;;;;1.40;0.70;;;1.30;86.20;;;;;;4988282;28;20797;-74
2023/11/27 05:15:31;;;;;;;1.27;0.55;;;1.30;86.00;;;;;;4988903;28;20057;-74
2023/11/27 05:17:57;;;;;;;3.25;0.90;;;1.50;85.50;;;;;;4989025;28;20469;-77
2023/11/27 05:20:23;;;;;;;3.63;0.85;;;1.40;85.60;;;;;;4988907;28;20030;-75
2023/11/27 05:22:48;;;;;;;1.13;0.63;;;1.60;85.60;;;;;;4987712;28;20058;-75
2023/11/27 05:25:14;;;;;;;3.05;0.75;;;1.60;85.30;;;;;;4990850;28;20694;-75
2023/11/27 05:27:40;;;;;;;4.95;0.88;;;1.50;85.30;;;;;;4989574;28;20037;-74
2023/11/27 05:30:06;;;;;;;1.70;0.60;;;1.40;85.30;;;;;;4989727;28;20034;-74
2023/11/27 05:32:32;;;;;;;6.18;1.25;;;1.40;85.60;;;;;;4988163;28;20117;-76
2023/11/27 05:34:57;;;;;;;1.88;0.82;;;1.50;85.60;;;;;;4989556;28;20384;-73
2023/11/27 05:37:23;;;;;;;1.95;0.88;;;1.40;85.50;;;;;;4988347;28;20065;-73
2023/11/27 05:39:49;;;;;;;3.42;0.90;;;1.50;85.60;;;;;;4989929;28;20084;-72
2023/11/27 05:42:19;;;;;;;2.53;0.95;;;1.40;86.50;;;;;;4990128;28;20036;-72
2023/11/27 05:44:44;;;;;;;3.40;1.33;;;1.20;86.50;;;;;;4987430;28;20033;-74
2023/11/27 05:47:12;;;;;;;3.25;0.90;;;1.10;86.90;;;;;;4991527;28;20045;-75
2023/11/27 05:49:38;;;;;;;1.95;0.95;;;1.00;87.30;;;;;;4989536;28;20049;-73
2023/11/27 05:52:04;;;;;;;2.53;1.15;;;1.10;87.40;;;;;;4989147;28;20071;-73
2023/11/27 05:54:30;;;;;;;1.85;0.77;;;1.00;87.00;;;;;;4991396;28;20136;-73
2023/11/27 05:56:55;;;;;;;2.55;0.65;;;0.90;88.10;;;;;;4988767;28;20169;-73
2023/11/27 05:59:21;;;;;;;2.58;0.95;;;1.10;87.00;;;;;;4988790;28;20041;-73
2023/11/27 06:01:47;;;;;;;2.88;1.23;;;1.30;86.50;;;;;;4989004;28;20034;-73
2023/11/27 06:04:13;;;;;;;2.28;0.95;;;1.20;88.30;;;;;;4988333;28;20112;-73
2023/11/27 06:06:38;;;;;;;1.75;0.70;;;1.30;86.70;;;;;;4988477;28;20056;-75
2023/11/27 06:09:04;;;;;;;1.60;0.65;;;1.50;86.10;;;;;;4989566;28;20034;-73
2023/11/27 06:11:30;;;;;;;1.77;0.70;;;1.50;86.70;;;;;;4987366;28;20480;-73
2023/11/27 06:13:56;;;;;;;1.35;0.55;;;1.20;86.60;;;;;;4988901;28;20056;-73
2023/11/27 06:16:25;;;;;;;2.25;0.85;;;1.20;87.10;;;;;;4990520;28;20022;-74
2023/11/27 06:18:51;;;;;;;3.75;0.93;;;1.00;87.10;;;;;;4990127;28;20030;-73
2023/11/27 06:21:17;;;;;;;2.03;0.82;;;0.90;88.70;;;;;;4987933;28;20611;-73
2023/11/27 06:23:42;;;;;;;3.05;0.75;;;1.00;87.60;;;;;;4989333;28;20034;-74
2023/11/27 06:26:12;;;;;;;2.42;1.25;;;1.10;87.50;;;;;;4994793;28;20042;-73
2023/11/27 06:28:38;;;;;;;2.65;0.77;;;1.20;87.00;;;;;;4992638;28;20124;-72
2023/11/27 06:31:04;;;;;;;2.78;1.02;;;1.00;87.30;;;;;;4987802;28;20089;-75
2023/11/27 06:33:29;;;;;;;3.30;0.90;;;0.80;87.80;;;;;;4990137;28;21324;-73
2023/11/27 06:35:55;;;;;;;1.48;0.82;;;0.80;87.50;;;;;;4992842;28;20089;-72
2023/11/27 06:38:21;;;;;;;1.90;0.70;;;0.80;87.50;;;;;;4990628;28;20131;-73
2023/11/27 06:40:47;;;;;;;5.97;1.10;;;0.90;87.60;;;;;;4991005;28;20029;-73
2023/11/27 06:43:14;;;;;;;2.92;0.82;;;0.90;87.60;;;;;;4990264;28;20141;-72
2023/11/27 06:45:39;;;;;;;3.25;1.08;;;0.90;87.80;;;;;;4991763;28;20050;-75
2023/11/27 06:48:05;;;;;;;2.60;1.33;;;0.90;87.90;;;;;;4993749;28;20037;-74
2023/11/27 06:50:31;;;;;;;3.45;1.20;;;0.90;87.90;;;;;;4992727;28;20061;-73
2023/11/27 06:52:57;;;;;;;3.53;1.02;;;0.80;88.10;;;;;;4993220;28;20037;-74
2023/11/27 06:55:22;;;;;;;2.75;0.88;;;0.90;88.50;;;;;;4988443;28;20116;-74
2023/11/27 06:57:49;;;;;;;2.45;0.80;;;0.80;88.30;;;;;;4988440;28;20037;-77
2023/11/27 07:00:15;;;;;;;3.00;0.70;;;0.80;88.30;;;;;;4986844;28;20036;-73
2023/11/27 07:02:41;;;;;;;1.67;0.70;;;1.00;87.60;;;;;;4985500;28;20046;-72
2023/11/27 07:05:07;;;;;;;3.13;1.05;;;1.00;88.00;;;;;;4989186;28;20049;-73
2023/11/27 07:07:35;;;;;;;4.43;0.90;;;0.90;88.10;;;;;;4986440;28;20045;-72
2023/11/27 07:10:02;;;;;;;3.95;1.10;;;1.00;87.90;;;;;;4984072;28;20034;-72
2023/11/27 07:12:29;;;;;;;2.35;0.90;;;1.10;87.60;;;;;;4986537;28;20034;-74
2023/11/27 07:14:54;;;;;;;4.93;1.58;;;1.00;87.80;;;;;;4985783;28;20872;-73
2023/11/27 07:17:20;;;;;;;4.28;1.63;;;0.80;88.20;;;;;;4988592;28;20018;-73
2023/11/27 07:19:46;;;;;;;4.15;1.30;;;0.50;89.70;;;;;;4986622;28;20057;-73
2023/11/27 07:22:12;;;;;;;3.05;0.93;;;0.60;89.10;;;;;;4987076;28;20449;-73
2023/11/27 07:24:38;;;;;;;3.22;1.05;;;0.60;89.40;;;;;;4987042;28;20065;-73
2023/11/27 07:27:04;;;;;;;2.53;0.95;;;0.70;89.30;;;;;;4986209;28;20034;-74
2023/11/27 07:29:30;;;;;;;1.90;0.65;;;0.80;89.20;;;;;;4985919;28;20081;-73
2023/11/27 07:31:56;;;;;;;2.15;0.90;;;0.90;88.80;;;;;;4988006;28;20113;-73
2023/11/27 07:34:27;;;;;;;2.35;0.80;;;1.10;87.40;;;;;;4986412;28;20103;-72
2023/11/27 07:36:53;;;;;;;1.80;0.73;;;1.30;87.10;;;;;;4985312;28;21241;-72
2023/11/27 07:39:19;;;;;;;2.85;1.10;;;1.40;87.70;;;;;;4986966;28;20034;-73
2023/11/27 07:41:45;;;;;;;2.88;0.90;;;1.40;86.90;;;;;;4986864;28;20552;-73
2023/11/27 07:44:12;;;;;;;3.28;1.23;;;1.40;87.00;;;;;;4986806;28;20153;-73
2023/11/27 07:46:38;;;;;;;4.25;1.00;;;1.50;87.00;;;;;;4986045;28;20133;-73
2023/11/27 07:49:04;;;;;;;3.50;0.80;;;1.50;86.50;;;;;;4986917;28;20140;-73
2023/11/27 07:51:30;;;;;;;2.60;0.90;;;1.40;87.30;;;;;;4987142;28;20041;-72
2023/11/27 07:53:56;;;;;;;3.13;1.33;;;1.30;88.00;;;;;;4988019;28;20053;-74
2023/11/27 07:56:29;;;;;;;5.03;1.30;;;1.10;89.70;;;;;;4992175;28;20034;-74
2023/11/27 07:58:56;;;;;;;4.28;1.30;;;1.30;87.40;;;;;;4993540;28;20076;-72
2023/11/27 08:01:22;;;;;;;3.42;1.88;;;1.40;87.90;;;;;;4998211;28;20024;-76
2023/11/27 08:03:48;;;;;;;5.50;2.05;;;1.20;90.00;;;;;;5002873;28;20113;-74
2023/11/27 08:06:14;;;;;;;3.97;1.80;;;1.00;90.40;;;;;;4995605;28;20109;-74
2023/11/27 08:08:41;;;;;;;4.78;1.40;;;1.10;90.00;;;;;;4989479;28;20072;-72
2023/11/27 08:11:09;;;;;;;3.10;1.13;;;1.20;89.90;;;;;;4993207;28;20064;-74
2023/11/27 08:13:42;;;;;;;3.05;1.15;;;1.50;87.10;;;;;;4992366;28;20037;-73
2023/11/27 08:16:08;;;;;;;3.42;1.35;;;1.50;87.90;;;;;;4993973;28;20067;-74
2023/11/27 08:18:34;;;;;;;7.22;1.20;;;1.40;88.40;;;;;;4994553;28;20062;-73
2023/11/27 08:21:05;;;;;;;3.20;1.30;;;1.40;88.20;;;;;;4992302;28;20041;-73
2023/11/27 08:23:31;;;;;;;2.83;1.17;;;1.40;88.50;;;;;;4993149;28;20025;-73
2023/11/27 08:25:57;;;;;;;2.45;1.10;;;1.60;87.30;;;;;;4994599;28;20045;-74
2023/11/27 08:28:24;;;;;;;2.88;0.95;;;1.70;86.10;;;;;;4993556;28;20045;-73
2023/11/27 08:30:50;;;;;;;2.72;1.05;;;1.80;86.40;;;;;;4993722;28;20137;-73
2023/11/27 08:33:15;;;;;;;2.58;0.90;;;1.80;85.80;;;;;;4994340;28;20034;-72
2023/11/27 08:35:42;;;;;;;2.67;0.85;;;1.90;86.40;;;;;;4993386;28;20034;-74
2023/11/27 08:38:08;;;;;;;3.63;1.23;;;1.80;86.10;;;;;;4986606;28;20044;-73
2023/11/27 08:40:33;;;;;;;2.28;0.98;;;1.80;86.00;;;;;;4993923;28;20112;-73
2023/11/27 08:43:02;;;;;;;5.50;1.60;;;1.90;85.60;;;;;;4992021;28;20038;-74
2023/11/27 08:45:28;;;;;;;5.55;1.50;;;1.80;85.80;;;;;;4991700;28;20506;-73
2023/11/27 08:47:55;;;;;;;5.00;2.08;;;1.80;86.20;;;;;;4992666;28;20048;-74
2023/11/27 08:50:32;;;;;;;4.05;2.05;;;1.50;90.20;;;;;;4993538;28;20129;-74
2023/11/27 08:52:59;;;;;;;3.53;1.85;;;1.60;90.40;;;;;;4992548;28;20022;-74
2023/11/27 08:55:29;;;;;;;3.38;1.45;;;1.60;91.30;;;;;;4991994;28;20480;-75
2023/11/27 08:57:58;;;;;;;3.10;1.20;;;1.50;91.90;;;;;;4993423;28;20156;-74
2023/11/27 09:00:28;;;;;;;5.32;1.35;;;1.40;91.30;;;;;;4993451;28;20091;-73
2023/11/27 09:02:57;;;;;;;3.65;1.52;;;1.50;91.20;;;;;;4991972;28;21355;-73
2023/11/27 09:05:24;;;;;;;7.05;1.88;;;1.20;90.80;;;;;;4991465;28;20366;-74
2023/11/27 09:07:54;;;;;;;4.35;2.20;;;1.50;88.70;;;;;;4991508;28;20621;-74
2023/11/27 09:10:21;;;;;;;4.43;1.95;;;1.30;90.90;;;;;;4992238;28;20377;-74
2023/11/27 09:12:48;;;;;;;3.05;1.40;;;1.40;89.80;;;;;;4992215;28;20657;-73
2023/11/27 09:15:17;;;;;;;4.68;1.50;;;1.40;89.40;;;;;;4992457;28;20038;-74
2023/11/27 09:17:44;;;;;;;3.63;1.40;;;1.50;90.50;;;;;;4991936;28;20729;-74
2023/11/27 09:20:11;;;;;;;3.70;1.67;;;1.40;90.80;;;;;;4992233;28;20117;-74
2023/11/27 09:22:38;;;;;;;3.97;1.23;;;1.40;90.90;;;;;;4992501;28;20042;-73
2023/11/27 09:25:08;;;;;;;4.05;1.20;;;1.50;91.60;;;;;;4993014;28;20050;-74
2023/11/27 09:27:41;;;;;;;2.60;1.17;;;1.30;92.90;;;;;;4991898;28;20037;-73
2023/11/27 09:30:07;;;;;;;3.00;1.15;;;1.30;92.90;;;;;;4991554;28;20121;-75
2023/11/27 09:32:34;;;;;;;2.38;0.98;;;1.30;92.70;;;;;;4992160;28;21089;-74
2023/11/27 09:35:02;;;;;;;2.50;1.00;;;1.40;90.60;;;;;;4992901;28;20037;-74
2023/11/27 09:37:29;;;;;;;3.72;1.33;;;1.50;90.60;;;;;;4991092;28;20025;-75
2023/11/27 09:39:55;;;;;;;4.28;1.33;;;1.70;91.60;;;;;;4991019;28;20361;-77
2023/11/27 09:42:24;;;;;;;2.80;1.08;;;1.80;91.20;;;;;;4991006;28;21415;-74
2023/11/27 09:44:50;;;;;;;8.20;3.42;;;1.90;90.90;;;;;;4991833;28;20465;-75
2023/11/27 09:47:17;;;;;;;6.05;3.45;;;2.00;90.70;;;;;;4989442;28;20041;-76
2023/11/27 09:49:49;;;;;;;4.78;3.08;;;2.20;90.20;;;;;;4993653;28;20121;-75
2023/11/27 09:52:19;;;;;;;3.35;2.00;;;2.30;90.60;;;;;;4991821;28;20036;-73
2023/11/27 09:54:52;;;;;;;4.03;1.95;;;2.40;88.80;;;;;;4992438;28;20038;-73
2023/11/27 09:57:17;;;;;;;5.88;2.08;;;2.60;88.50;;;;;;4992579;28;20072;-74
2023/11/27 09:59:43;;;;;;;3.70;1.77;;;2.70;89.30;;;;;;4991855;28;20863;-74
2023/11/27 10:02:10;;;;;;;3.97;1.75;;;2.90;89.80;;;;;;4991010;28;20045;-75
2023/11/27 10:04:36;;;;;;;4.53;1.70;;;2.90;88.50;;;;;;4990548;28;20050;-74
2023/11/27 10:07:02;;;;;;;3.63;1.40;;;2.90;87.80;;;;;;4991158;28;20897;-73
2023/11/27 10:09:27;;;;;;;5.10;1.83;;;3.10;87.70;;;;;;4990551;28;20076;-75
2023/11/27 10:12:00;;;;;;;4.50;1.73;;;3.10;87.20;;;;;;4990486;28;20585;-74
2023/11/27 10:14:27;;;;;;;4.65;1.98;;;3.30;88.40;;;;;;4989661;28;20034;-74
2023/11/27 10:17:01;;;;;;;4.10;1.85;;;3.50;87.90;;;;;;4991029;28;20030;-74
2023/11/27 10:19:27;;;;;;;2.20;1.10;;;3.60;87.20;;;;;;4990492;28;20107;-73
2023/11/27 10:21:57;;;;;;;3.95;1.52;;;3.60;87.00;;;;;;4991003;28;20030;-73
2023/11/27 10:24:23;;;;;;;4.40;2.00;;;3.60;86.40;;;;;;4985632;28;20198;-74
2023/11/27 10:26:49;;;;;;;3.28;1.50;;;3.80;86.80;;;;;;4991513;28;20496;-73
2023/11/27 10:29:27;;;;;;;5.70;1.90;;;3.90;86.40;;;;;;4988773;28;20492;-74
2023/11/27 10:31:59;;;;;;;4.55;2.05;;;3.90;87.00;;;;;;4990693;28;20041;-74
2023/11/27 10:34:26;;;;;;;3.97;1.65;;;3.40;87.00;;;;;;4991377;28;20034;-74
2023/11/27 10:36:57;;;;;;;9.07;2.30;;;3.50;86.10;;;;;;4992642;28;20029;-74
2023/11/27 10:39:25;;;;;;;4.20;2.15;;;3.70;86.30;;;;;;4991149;28;20041;-74
2023/11/27 10:41:55;;;;;;;6.80;1.92;;;3.80;86.60;;;;;;4989899;28;20029;-73
2023/11/27 10:44:25;;;;;;;6.82;2.10;;;4.00;87.10;;;;;;4990894;28;20456;-74
2023/11/27 10:46:53;;;;;;;3.78;1.80;;;4.00;86.90;;;;;;4988918;28;20196;-73
2023/11/27 10:49:21;;;;;;;6.13;2.20;;;4.00;86.70;;;;;;4989849;28;20028;-73
2023/11/27 10:51:47;;;;;;;4.45;1.83;;;3.90;86.60;;;;;;4991446;28;20368;-73
2023/11/27 10:54:14;;;;;;;5.45;2.15;;;3.80;87.10;;;;;;4990084;28;20141;-73
2023/11/27 10:56:47;;;;;;;4.90;2.00;;;3.90;87.30;;;;;;4988409;28;20033;-74
2023/11/27 10:59:14;;;;;;;4.63;1.88;;;3.90;88.20;;;;;;4990509;28;20108;-74
2023/11/27 11:01:43;;;;;;;4.75;2.15;;;3.90;87.50;;;;;;4986662;28;20022;-74
2023/11/27 11:04:47;;;;;;;5.43;3.33;;;3.90;87.00;;;;;;4991000;28;20056;-75
2023/11/27 11:07:19;;;;;;;4.68;2.20;;;3.80;86.10;;;;;;4988839;28;20053;-73
2023/11/27 11:09:49;;;;;;;4.18;2.33;;;4.00;86.60;;;;;;4989648;28;20038;-74
2023/11/27 11:12:23;;;;;;;5.80;2.50;;;4.00;86.60;;;;;;4985691;28;20530;-74
2023/11/27 11:14:52;;;;;;;9.38;2.53;;;4.00;85.80;;;;;;4988793;28;25319;-74
2023/11/27 11:17:25;;;;;;;8.13;2.72;;;4.00;85.90;;;;;;4989991;28;20030;-74
2023/11/27 11:19:57;;;;;;;4.65;2.20;;;3.90;86.90;;;;;;4990943;28;20107;-74
2023/11/27 11:22:47;;;;;;;5.18;2.20;;;4.10;87.00;;;;;;4990255;28;20195;-74
2023/11/27 11:25:22;;;;;;;4.80;1.85;;;4.10;86.50;;;;;;4991085;28;20040;-75
2023/11/27 11:28:06;;;;;;;6.05;2.10;;;4.20;86.30;;;;;;4991007;28;20116;-73
2023/11/27 11:30:34;;;;;;;4.82;2.08;;;4.20;85.40;;;;;;4989130;28;20400;-73
2023/11/27 11:33:05;;;;;;;5.68;2.38;;;4.30;85.70;;;;;;4988400;28;20092;-75
2023/11/27 11:35:36;;;;;;;6.03;2.08;;;4.40;86.00;;;;;;4991753;28;20029;-77
2023/11/27 11:38:15;;;;;;;9.52;2.30;;;4.30;86.30;;;;;;4989790;28;20852;-74
2023/11/27 11:40:47;;;;;;;4.22;1.80;;;4.30;86.60;;;;;;4990165;28;20377;-74
2023/11/27 11:43:14;;;;;;;7.38;2.00;;;4.10;85.70;;;;;;4989373;28;20084;-73
2023/11/27 11:45:41;;;;;;;4.80;2.33;;;4.20;84.80;;;;;;4990736;28;20050;-73
2023/11/27 11:48:08;;;;;;;5.32;2.15;;;4.10;84.60;;;;;;4989634;28;20057;-74
2023/11/27 11:50:43;;;;;;;4.93;2.10;;;4.30;84.90;;;;;;4989102;28;20038;-73
2023/11/27 11:53:18;;;;;;;5.32;2.20;;;4.40;85.10;;;;;;4992606;28;20100;-75
2023/11/27 11:55:47;;;;;;;4.85;1.83;;;4.50;85.20;;;;;;4989230;28;20030;-74
2023/11/27 11:58:19;;;;;;;4.32;1.85;;;4.60;85.30;;;;;;4986150;28;20125;-73
2023/11/27 12:00:50;;;;;;;4.38;2.03;;;4.50;83.50;;;;;;4984670;28;20531;-74
2023/11/27 12:03:18;;;;;;;4.53;2.13;;;4.50;84.60;;;;;;4984056;28;20068;-74
2023/11/27 12:05:53;;;;;;;3.65;1.88;;;4.70;85.40;;;;;;4988433;28;20045;-74
2023/11/27 12:08:19;;;;;;;4.25;1.70;;;4.80;85.10;;;;;;4986231;28;20524;-74
2023/11/27 12:10:46;;;;;;;15.63;7.45;;;4.90;84.90;;;;;;4985769;28;20026;-74
2023/11/27 12:13:11;;;;;;;11.45;4.40;;;4.90;84.60;;;;;;4986359;28;20219;-74
2023/11/27 12:15:37;;;;;;;8.05;2.72;;;4.90;85.10;;;;;;4985522;28;20528;-73
2023/11/27 12:18:08;;;;;;;5.28;2.50;;;4.80;85.40;;;;;;4986312;28;20030;-75
2023/11/27 12:20:37;;;;;;;6.15;1.90;;;4.80;85.10;;;;;;4985387;28;20467;-74
2023/11/27 12:23:04;;;;;;;4.43;1.98;;;4.90;84.50;;;;;;4985505;28;20117;-73
2023/11/27 12:25:30;;;;;;;5.03;2.42;;;4.90;84.80;;;;;;4986161;28;20046;-73
2023/11/27 12:27:56;;;;;;;5.45;2.88;;;5.00;85.50;;;;;;4987541;28;20033;-73
2023/11/27 12:30:21;;;;;;;5.43;2.58;;;5.20;85.10;;;;;;4986009;28;20121;-74
2023/11/27 12:32:52;;;;;;;5.00;2.00;;;5.20;83.50;;;;;;4985947;28;20030;-74
2023/11/27 12:35:19;;;;;;;6.00;2.25;;;5.10;82.00;;;;;;4986893;28;20056;-73
2023/11/27 12:37:48;;;;;;;4.93;2.60;;;5.10;83.60;;;;;;4984865;28;20045;-72
2023/11/27 12:40:18;;;;;;;8.05;3.40;;;5.30;83.50;;;;;;4986524;28;20099;-73
2023/11/27 12:42:46;;;;;;;6.20;1.85;;;5.40;83.30;;;;;;4988197;28;20432;-73
2023/11/27 12:45:12;;;;;;;7.13;2.22;;;5.30;83.30;;;;;;4990499;28;20140;-73
2023/11/27 12:47:39;;;;;;;7.70;2.97;;;5.40;84.20;;;;;;4987641;28;20034;-74
2023/11/27 12:50:22;;;;;;;4.70;2.00;;;5.40;84.40;;;;;;4988719;28;20152;-74
2023/11/27 12:53:00;;;;;;;4.20;2.08;;;5.40;84.00;;;;;;4987961;28;20121;-73
2023/11/27 12:55:36;;;;;;;5.18;2.70;;;5.20;82.70;;;;;;4988711;28;20069;-73
2023/11/27 12:58:10;;;;;;;5.63;2.38;;;5.20;83.60;;;;;;5003585;28;20396;-74